createdAt,value
2023-04-15T17:53:06.626Z,1.88
2023-04-15T17:55:33.812Z,1.60
2023-04-15T17:58:03.188Z,1.58
2023-04-15T18:00:30.269Z,1.70
2023-04-15T18:02:57.113Z,1.50
2023-04-15T18:05:24.119Z,1.10
2023-04-15T18:07:52.282Z,1.35
2023-04-15T18:10:20.569Z,1.50
2023-04-15T18:12:47.934Z,1.40
2023-04-15T18:15:14.757Z,1.23
2023-04-15T18:17:41.428Z,1.38
2023-04-15T18:20:08.965Z,1.50
2023-04-15T18:22:36.242Z,1.52
2023-04-15T18:25:04.410Z,1.60
2023-04-15T18:27:33.069Z,1.58
2023-04-15T18:29:59.821Z,1.88
2023-04-15T18:32:31.764Z,1.27
2023-04-15T18:34:58.963Z,1.50
2023-04-15T18:37:27.753Z,1.40
2023-04-15T18:39:54.536Z,1.48
2023-04-15T18:42:22.438Z,1.60
2023-04-15T18:44:50.003Z,1.60
2023-04-15T18:47:16.966Z,1.45
2023-04-15T18:49:43.641Z,1.80
2023-04-15T18:52:10.985Z,1.48
2023-04-15T18:54:38.229Z,1.70
2023-04-15T18:57:07.888Z,1.60
2023-04-15T18:59:35.611Z,1.60
2023-04-15T19:02:06.513Z,1.52
2023-04-15T19:04:33.421Z,1.85
2023-04-15T19:07:00.211Z,1.50
2023-04-15T19:09:28.544Z,1.58
2023-04-15T19:11:56.749Z,2.00
2023-04-15T19:14:23.820Z,1.63
2023-04-15T19:16:50.540Z,1.75
2023-04-15T19:19:17.204Z,1.70
2023-04-15T19:21:45.508Z,1.77
2023-04-15T19:24:12.278Z,2.00
2023-04-15T19:26:39.090Z,1.85
2023-04-15T19:29:06.213Z,2.08
2023-04-15T19:31:34.262Z,1.73
2023-04-15T19:34:01.088Z,1.90
2023-04-15T19:36:28.589Z,1.73
2023-04-15T19:38:55.359Z,1.83
2023-04-15T19:41:22.747Z,1.80
2023-04-15T19:43:49.357Z,1.80
2023-04-15T19:46:16.933Z,1.90
2023-04-15T19:48:43.650Z,2.05
2023-04-15T19:51:10.409Z,1.75
2023-04-15T19:53:37.084Z,1.60
2023-04-15T19:56:03.703Z,1.73
2023-04-15T19:58:31.394Z,2.05
2023-04-15T20:00:58.925Z,1.85
2023-04-15T20:03:25.766Z,1.58
2023-04-15T20:05:52.830Z,1.77
2023-04-15T20:08:19.482Z,1.73
2023-04-15T20:10:46.330Z,1.88
2023-04-15T20:13:13.164Z,1.95
2023-04-15T20:15:41.265Z,1.90
2023-04-15T20:18:07.958Z,1.90
2023-04-15T20:20:35.388Z,2.10
2023-04-15T20:23:02.124Z,2.22
2023-04-15T20:25:28.668Z,2.03
2023-04-15T20:27:55.420Z,1.80
2023-04-15T20:30:22.274Z,1.88
2023-04-15T20:32:48.868Z,2.08
2023-04-15T20:35:15.505Z,2.35
2023-04-15T20:37:45.293Z,1.85
2023-04-15T20:42:40.818Z,2.13
2023-04-15T20:45:08.463Z,2.17
2023-04-15T20:47:35.029Z,2.35
2023-04-15T20:50:01.734Z,2.05
2023-04-15T20:52:28.386Z,2.15
2023-04-15T20:54:55.612Z,2.08
2023-04-15T20:57:24.707Z,2.00
2023-04-15T20:59:51.506Z,2.55
2023-04-15T21:02:18.472Z,1.80
2023-04-15T21:04:47.214Z,2.03
2023-04-15T21:07:15.331Z,2.40
2023-04-15T21:09:43.914Z,2.10
2023-04-15T21:12:12.398Z,1.90
2023-04-15T21:14:39.838Z,2.22
2023-04-15T21:17:11.149Z,2.08
2023-04-15T21:19:39.086Z,2.70
2023-04-15T21:22:05.678Z,2.00
2023-04-15T21:24:32.341Z,2.47
2023-04-15T21:26:59.140Z,2.45
2023-04-15T21:29:26.127Z,2.20
2023-04-15T21:31:53.490Z,2.47
2023-04-15T21:34:20.168Z,2.50
2023-04-15T21:36:46.992Z,2.17
2023-04-15T21:39:13.605Z,2.75
2023-04-15T21:41:40.229Z,2.22
2023-04-15T21:44:06.932Z,2.00
2023-04-15T21:46:35.448Z,1.95
2023-04-15T21:49:02.310Z,2.40
2023-04-15T21:51:30.570Z,2.28
2023-04-15T21:53:57.153Z,2.00
2023-04-15T21:56:24.881Z,1.75
2023-04-15T21:58:57.606Z,1.50
2023-04-15T22:01:26.778Z,1.90
2023-04-15T22:03:53.731Z,1.80
2023-04-15T22:06:20.534Z,1.60
2023-04-15T22:08:56.109Z,1.58
2023-04-15T22:11:31.615Z,1.60
2023-04-15T22:13:58.907Z,2.10
2023-04-15T22:16:26.532Z,2.20
2023-04-15T22:18:54.035Z,1.85
2023-04-15T22:21:20.749Z,1.60
2023-04-15T22:23:48.482Z,1.83
2023-04-15T22:26:15.378Z,1.70
2023-04-15T22:28:42.475Z,1.73
2023-04-15T22:31:09.305Z,1.80
2023-04-15T22:33:36.151Z,1.75
2023-04-15T22:36:02.956Z,2.33
2023-04-15T22:38:31.604Z,1.60
2023-04-15T22:40:59.968Z,2.20
2023-04-15T22:43:27.780Z,2.10
2023-04-15T22:45:56.665Z,1.98
2023-04-15T22:48:23.632Z,2.25
2023-04-15T22:50:50.368Z,2.00
2023-04-15T22:53:18.027Z,2.28
2023-04-15T22:55:48.497Z,2.20
2023-04-15T22:58:17.153Z,1.88
2023-04-15T23:00:44.260Z,2.00
2023-04-15T23:03:11.002Z,2.15
2023-04-15T23:05:40.675Z,1.95
2023-04-15T23:08:07.689Z,2.08
2023-04-15T23:10:35.906Z,2.00
2023-04-15T23:13:02.689Z,2.05
2023-04-15T23:15:29.265Z,1.83
2023-04-15T23:17:56.152Z,1.90
2023-04-15T23:20:22.859Z,1.90
2023-04-15T23:22:49.481Z,1.70
2023-04-15T23:25:16.031Z,1.83
2023-04-15T23:27:42.615Z,1.70
2023-04-15T23:30:09.347Z,1.75
2023-04-15T23:32:35.969Z,1.88
2023-04-15T23:35:03.043Z,1.30
2023-04-15T23:37:34.015Z,1.55
2023-04-15T23:40:00.677Z,1.58
2023-04-15T23:42:27.349Z,1.48
2023-04-15T23:44:53.987Z,1.60
2023-04-15T23:47:21.268Z,1.50
2023-04-15T23:49:47.978Z,1.60
2023-04-15T23:52:14.699Z,1.63
2023-04-15T23:54:41.328Z,1.50
2023-04-15T23:57:07.973Z,1.35
2023-04-15T23:59:35.112Z,1.42
